sensor_id;sensor_type;location;lat;lon;timestamp;P1;durP1;ratioP1;P2;durP2;ratioP2
11797;SDS011;5956;51.428;6.682;2023-05-07T00:01:12;5.50;;;5.00;;
11797;SDS011;5956;51.428;6.682;2023-05-07T00:03:38;8.60;;;4.82;;
11797;SDS011;5956;51.428;6.682;2023-05-07T00:06:05;5.57;;;4.82;;
11797;SDS011;5956;51.428;6.682;2023-05-07T00:08:32;4.72;;;3.92;;
11797;SDS011;5956;51.428;6.682;2023-05-07T00:10:58;5.43;;;4.75;;
11797;SDS011;5956;51.428;6.682;2023-05-07T00:13:26;5.07;;;4.28;;
11797;SDS011;5956;51.428;6.682;2023-05-07T00:15:55;7.47;;;4.68;;
11797;SDS011;5956;51.428;6.682;2023-05-07T00:18:22;7.53;;;4.88;;
11797;SDS011;5956;51.428;6.682;2023-05-07T00:20:48;4.80;;;4.30;;
11797;SDS011;5956;51.428;6.682;2023-05-07T00:23:15;5.03;;;4.50;;
11797;SDS011;5956;51.428;6.682;2023-05-07T00:25:41;7.07;;;4.90;;
11797;SDS011;5956;51.428;6.682;2023-05-07T00:28:08;4.70;;;4.40;;
11797;SDS011;5956;51.428;6.682;2023-05-07T00:30:35;5.35;;;3.90;;
11797;SDS011;5956;51.428;6.682;2023-05-07T00:33:02;5.38;;;4.72;;
11797;SDS011;5956;51.428;6.682;2023-05-07T00:35:29;5.47;;;4.95;;
11797;SDS011;5956;51.428;6.682;2023-05-07T00:37:55;5.97;;;5.43;;
11797;SDS011;5956;51.428;6.682;2023-05-07T00:40:22;6.05;;;5.55;;
11797;SDS011;5956;51.428;6.682;2023-05-07T00:42:48;8.00;;;5.60;;
11797;SDS011;5956;51.428;6.682;2023-05-07T00:45:15;5.78;;;5.30;;
11797;SDS011;5956;51.428;6.682;2023-05-07T00:47:43;6.32;;;4.68;;
11797;SDS011;5956;51.428;6.682;2023-05-07T00:50:10;6.65;;;4.45;;
11797;SDS011;5956;51.428;6.682;2023-05-07T00:52:37;8.88;;;5.30;;
11797;SDS011;5956;51.428;6.682;2023-05-07T00:55:04;5.73;;;5.07;;
11797;SDS011;5956;51.428;6.682;2023-05-07T00:57:32;5.85;;;5.28;;
11797;SDS011;5956;51.428;6.682;2023-05-07T00:59:59;5.65;;;5.15;;
11797;SDS011;5956;51.428;6.682;2023-05-07T01:02:26;5.85;;;5.35;;
11797;SDS011;5956;51.428;6.682;2023-05-07T01:04:53;6.55;;;5.90;;
11797;SDS011;5956;51.428;6.682;2023-05-07T01:07:21;6.32;;;5.82;;
11797;SDS011;5956;51.428;6.682;2023-05-07T01:09:47;6.88;;;6.28;;
11797;SDS011;5956;51.428;6.682;2023-05-07T01:12:14;6.10;;;5.60;;
11797;SDS011;5956;51.428;6.682;2023-05-07T01:14:41;5.80;;;5.22;;
11797;SDS011;5956;51.428;6.682;2023-05-07T01:17:07;5.18;;;4.78;;
11797;SDS011;5956;51.428;6.682;2023-05-07T01:19:34;6.87;;;5.60;;
11797;SDS011;5956;51.428;6.682;2023-05-07T01:22:04;7.63;;;5.97;;
11797;SDS011;5956;51.428;6.682;2023-05-07T01:24:35;5.90;;;5.40;;
11797;SDS011;5956;51.428;6.682;2023-05-07T01:27:02;5.50;;;4.97;;
11797;SDS011;5956;51.428;6.682;2023-05-07T01:29:29;6.45;;;5.50;;
11797;SDS011;5956;51.428;6.682;2023-05-07T01:31:56;6.53;;;5.88;;
11797;SDS011;5956;51.428;6.682;2023-05-07T01:34:23;7.10;;;6.43;;
11797;SDS011;5956;51.428;6.682;2023-05-07T01:36:50;7.20;;;6.53;;
11797;SDS011;5956;51.428;6.682;2023-05-07T01:39:18;8.40;;;7.60;;
11797;SDS011;5956;51.428;6.682;2023-05-07T01:41:46;9.00;;;8.10;;
11797;SDS011;5956;51.428;6.682;2023-05-07T01:44:13;9.55;;;8.63;;
11797;SDS011;5956;51.428;6.682;2023-05-07T01:46:39;9.63;;;8.60;;
11797;SDS011;5956;51.428;6.682;2023-05-07T01:49:06;12.27;;;9.53;;
11797;SDS011;5956;51.428;6.682;2023-05-07T01:51:32;9.20;;;8.30;;
11797;SDS011;5956;51.428;6.682;2023-05-07T01:53:59;8.85;;;8.02;;
11797;SDS011;5956;51.428;6.682;2023-05-07T01:56:26;8.55;;;7.93;;
11797;SDS011;5956;51.428;6.682;2023-05-07T01:58:54;8.27;;;7.47;;
11797;SDS011;5956;51.428;6.682;2023-05-07T02:01:20;7.60;;;6.65;;
11797;SDS011;5956;51.428;6.682;2023-05-07T02:03:47;7.47;;;6.88;;
11797;SDS011;5956;51.428;6.682;2023-05-07T02:06:13;8.23;;;7.15;;
11797;SDS011;5956;51.428;6.682;2023-05-07T02:08:40;7.95;;;7.35;;
11797;SDS011;5956;51.428;6.682;2023-05-07T02:11:06;7.55;;;6.95;;
11797;SDS011;5956;51.428;6.682;2023-05-07T02:13:33;8.73;;;7.93;;
11797;SDS011;5956;51.428;6.682;2023-05-07T02:16:01;8.00;;;7.40;;
11797;SDS011;5956;51.428;6.682;2023-05-07T02:18:28;8.47;;;6.90;;
11797;SDS011;5956;51.428;6.682;2023-05-07T02:20:54;8.20;;;7.60;;
11797;SDS011;5956;51.428;6.682;2023-05-07T02:23:21;8.83;;;8.03;;
11797;SDS011;5956;51.428;6.682;2023-05-07T02:25:47;8.57;;;7.77;;
11797;SDS011;5956;51.428;6.682;2023-05-07T02:28:14;8.67;;;7.77;;
11797;SDS011;5956;51.428;6.682;2023-05-07T02:30:40;8.93;;;8.07;;
11797;SDS011;5956;51.428;6.682;2023-05-07T02:33:08;8.90;;;8.30;;
11797;SDS011;5956;51.428;6.682;2023-05-07T02:35:34;8.10;;;7.50;;
11797;SDS011;5956;51.428;6.682;2023-05-07T02:38:01;9.95;;;9.10;;
11797;SDS011;5956;51.428;6.682;2023-05-07T02:40:27;9.00;;;8.00;;
11797;SDS011;5956;51.428;6.682;2023-05-07T02:42:54;9.03;;;8.13;;
11797;SDS011;5956;51.428;6.682;2023-05-07T02:45:21;10.13;;;9.03;;
11797;SDS011;5956;51.428;6.682;2023-05-07T02:47:47;11.17;;;10.10;;
11797;SDS011;5956;51.428;6.682;2023-05-07T02:50:15;10.63;;;9.70;;
11797;SDS011;5956;51.428;6.682;2023-05-07T02:52:42;11.00;;;10.03;;
11797;SDS011;5956;51.428;6.682;2023-05-07T02:55:08;12.15;;;11.05;;
11797;SDS011;5956;51.428;6.682;2023-05-07T02:57:35;11.40;;;10.33;;
11797;SDS011;5956;51.428;6.682;2023-05-07T03:00:09;11.90;;;10.98;;
11797;SDS011;5956;51.428;6.682;2023-05-07T03:02:36;12.07;;;11.00;;
11797;SDS011;5956;51.428;6.682;2023-05-07T03:05:03;12.35;;;11.10;;
11797;SDS011;5956;51.428;6.682;2023-05-07T03:07:31;13.23;;;10.67;;
11797;SDS011;5956;51.428;6.682;2023-05-07T03:09:57;11.57;;;10.57;;
11797;SDS011;5956;51.428;6.682;2023-05-07T03:12:23;12.47;;;11.27;;
11797;SDS011;5956;51.428;6.682;2023-05-07T03:14:50;12.03;;;10.83;;
11797;SDS011;5956;51.428;6.682;2023-05-07T03:17:16;11.98;;;10.77;;
11797;SDS011;5956;51.428;6.682;2023-05-07T03:19:43;12.17;;;11.17;;
11797;SDS011;5956;51.428;6.682;2023-05-07T03:22:09;12.70;;;11.67;;
11797;SDS011;5956;51.428;6.682;2023-05-07T03:24:37;12.40;;;11.32;;
11797;SDS011;5956;51.428;6.682;2023-05-07T03:27:03;12.27;;;11.27;;
11797;SDS011;5956;51.428;6.682;2023-05-07T03:29:30;12.70;;;11.60;;
11797;SDS011;5956;51.428;6.682;2023-05-07T03:31:56;12.88;;;11.68;;
11797;SDS011;5956;51.428;6.682;2023-05-07T03:34:23;12.32;;;11.23;;
11797;SDS011;5956;51.428;6.682;2023-05-07T03:36:49;12.57;;;11.47;;
11797;SDS011;5956;51.428;6.682;2023-05-07T03:39:16;12.30;;;11.20;;
11797;SDS011;5956;51.428;6.682;2023-05-07T03:41:44;13.60;;;12.30;;
11797;SDS011;5956;51.428;6.682;2023-05-07T03:44:10;11.97;;;10.93;;
11797;SDS011;5956;51.428;6.682;2023-05-07T03:46:36;13.50;;;12.07;;
11797;SDS011;5956;51.428;6.682;2023-05-07T03:49:03;13.20;;;12.03;;
11797;SDS011;5956;51.428;6.682;2023-05-07T03:51:29;12.50;;;11.37;;
11797;SDS011;5956;51.428;6.682;2023-05-07T03:53:56;14.67;;;13.10;;
11797;SDS011;5956;51.428;6.682;2023-05-07T03:56:22;12.17;;;10.97;;
11797;SDS011;5956;51.428;6.682;2023-05-07T03:58:52;13.25;;;12.05;;
11797;SDS011;5956;51.428;6.682;2023-05-07T04:01:19;13.33;;;12.13;;
11797;SDS011;5956;51.428;6.682;2023-05-07T04:03:45;13.27;;;12.07;;
11797;SDS011;5956;51.428;6.682;2023-05-07T04:06:12;13.47;;;12.20;;
11797;SDS011;5956;51.428;6.682;2023-05-07T04:08:38;13.80;;;12.63;;
11797;SDS011;5956;51.428;6.682;2023-05-07T04:11:05;14.60;;;13.40;;
11797;SDS011;5956;51.428;6.682;2023-05-07T04:13:31;14.20;;;12.87;;
11797;SDS011;5956;51.428;6.682;2023-05-07T04:16:00;13.50;;;12.20;;
11797;SDS011;5956;51.428;6.682;2023-05-07T04:18:27;13.53;;;12.27;;
11797;SDS011;5956;51.428;6.682;2023-05-07T04:20:54;13.37;;;12.27;;
11797;SDS011;5956;51.428;6.682;2023-05-07T04:23:20;13.93;;;12.53;;
11797;SDS011;5956;51.428;6.682;2023-05-07T04:25:47;15.03;;;13.53;;
11797;SDS011;5956;51.428;6.682;2023-05-07T04:28:13;15.27;;;13.77;;
11797;SDS011;5956;51.428;6.682;2023-05-07T04:30:40;13.50;;;12.03;;
11797;SDS011;5956;51.428;6.682;2023-05-07T04:33:08;13.17;;;11.87;;
11797;SDS011;5956;51.428;6.682;2023-05-07T04:35:34;11.80;;;10.70;;
11797;SDS011;5956;51.428;6.682;2023-05-07T04:38:01;11.48;;;10.57;;
11797;SDS011;5956;51.428;6.682;2023-05-07T04:40:27;10.83;;;10.00;;
11797;SDS011;5956;51.428;6.682;2023-05-07T04:42:54;12.83;;;10.17;;
11797;SDS011;5956;51.428;6.682;2023-05-07T04:45:20;11.63;;;10.55;;
11797;SDS011;5956;51.428;6.682;2023-05-07T04:47:47;11.93;;;10.88;;
11797;SDS011;5956;51.428;6.682;2023-05-07T04:50:15;13.10;;;11.83;;
11797;SDS011;5956;51.428;6.682;2023-05-07T04:52:42;13.17;;;12.13;;
11797;SDS011;5956;51.428;6.682;2023-05-07T04:55:09;13.20;;;12.00;;
11797;SDS011;5956;51.428;6.682;2023-05-07T04:57:35;11.60;;;10.47;;
11797;SDS011;5956;51.428;6.682;2023-05-07T05:00:03;11.97;;;10.93;;
11797;SDS011;5956;51.428;6.682;2023-05-07T05:02:31;12.25;;;11.15;;
11797;SDS011;5956;51.428;6.682;2023-05-07T05:04:57;12.75;;;11.55;;
11797;SDS011;5956;51.428;6.682;2023-05-07T05:07:25;13.63;;;12.20;;
11797;SDS011;5956;51.428;6.682;2023-05-07T05:09:52;12.80;;;11.77;;
11797;SDS011;5956;51.428;6.682;2023-05-07T05:12:18;12.80;;;11.80;;
11797;SDS011;5956;51.428;6.682;2023-05-07T05:14:44;12.98;;;11.77;;
11797;SDS011;5956;51.428;6.682;2023-05-07T05:17:11;13.13;;;11.93;;
11797;SDS011;5956;51.428;6.682;2023-05-07T05:19:37;13.60;;;12.40;;
11797;SDS011;5956;51.428;6.682;2023-05-07T05:22:04;14.30;;;13.00;;
11797;SDS011;5956;51.428;6.682;2023-05-07T05:24:32;13.57;;;12.37;;
11797;SDS011;5956;51.428;6.682;2023-05-07T05:26:58;15.60;;;14.20;;
11797;SDS011;5956;51.428;6.682;2023-05-07T05:29:26;15.73;;;14.27;;
11797;SDS011;5956;51.428;6.682;2023-05-07T05:31:52;16.60;;;15.10;;
11797;SDS011;5956;51.428;6.682;2023-05-07T05:34:19;15.75;;;14.20;;
11797;SDS011;5956;51.428;6.682;2023-05-07T05:36:46;15.87;;;14.43;;
11797;SDS011;5956;51.428;6.682;2023-05-07T05:39:13;17.05;;;14.70;;
11797;SDS011;5956;51.428;6.682;2023-05-07T05:41:41;16.83;;;15.20;;
11797;SDS011;5956;51.428;6.682;2023-05-07T05:44:07;17.00;;;15.48;;
11797;SDS011;5956;51.428;6.682;2023-05-07T05:46:34;16.02;;;14.70;;
11797;SDS011;5956;51.428;6.682;2023-05-07T05:49:01;15.90;;;14.63;;
11797;SDS011;5956;51.428;6.682;2023-05-07T05:51:27;15.50;;;14.25;;
11797;SDS011;5956;51.428;6.682;2023-05-07T05:53:54;15.32;;;13.90;;
11797;SDS011;5956;51.428;6.682;2023-05-07T05:56:20;16.57;;;15.03;;
11797;SDS011;5956;51.428;6.682;2023-05-07T05:58:48;15.63;;;14.17;;
11797;SDS011;5956;51.428;6.682;2023-05-07T06:01:14;16.58;;;15.00;;
11797;SDS011;5956;51.428;6.682;2023-05-07T06:03:41;16.25;;;14.60;;
11797;SDS011;5956;51.428;6.682;2023-05-07T06:06:07;16.55;;;15.02;;
11797;SDS011;5956;51.428;6.682;2023-05-07T06:08:34;17.50;;;16.00;;
11797;SDS011;5956;51.428;6.682;2023-05-07T06:11:01;16.73;;;15.15;;
11797;SDS011;5956;51.428;6.682;2023-05-07T06:13:27;13.70;;;12.50;;
11797;SDS011;5956;51.428;6.682;2023-05-07T06:15:55;15.45;;;14.15;;
11797;SDS011;5956;51.428;6.682;2023-05-07T06:18:22;15.57;;;14.27;;
11797;SDS011;5956;51.428;6.682;2023-05-07T06:20:48;15.43;;;13.95;;
11797;SDS011;5956;51.428;6.682;2023-05-07T06:23:15;14.68;;;13.32;;
11797;SDS011;5956;51.428;6.682;2023-05-07T06:25:41;15.98;;;14.48;;
11797;SDS011;5956;51.428;6.682;2023-05-07T06:28:08;15.57;;;14.00;;
11797;SDS011;5956;51.428;6.682;2023-05-07T06:30:36;14.43;;;13.13;;
11797;SDS011;5956;51.428;6.682;2023-05-07T06:33:04;15.13;;;13.90;;
11797;SDS011;5956;51.428;6.682;2023-05-07T06:35:30;15.90;;;14.50;;
11797;SDS011;5956;51.428;6.682;2023-05-07T06:37:59;14.32;;;13.02;;
11797;SDS011;5956;51.428;6.682;2023-05-07T06:40:25;14.55;;;13.18;;
11797;SDS011;5956;51.428;6.682;2023-05-07T06:42:52;13.73;;;12.45;;
11797;SDS011;5956;51.428;6.682;2023-05-07T06:45:19;14.15;;;12.55;;
11797;SDS011;5956;51.428;6.682;2023-05-07T06:47:45;13.00;;;11.80;;
11797;SDS011;5956;51.428;6.682;2023-05-07T06:50:13;12.13;;;11.20;;
11797;SDS011;5956;51.428;6.682;2023-05-07T06:52:41;13.15;;;12.05;;
11797;SDS011;5956;51.428;6.682;2023-05-07T06:55:08;11.82;;;10.60;;
11797;SDS011;5956;51.428;6.682;2023-05-07T06:57:36;11.65;;;10.65;;
11797;SDS011;5956;51.428;6.682;2023-05-07T07:00:03;12.57;;;11.52;;
11797;SDS011;5956;51.428;6.682;2023-05-07T07:02:32;12.20;;;11.05;;
11797;SDS011;5956;51.428;6.682;2023-05-07T07:04:58;11.95;;;10.85;;
11797;SDS011;5956;51.428;6.682;2023-05-07T07:07:26;11.45;;;10.55;;
11797;SDS011;5956;51.428;6.682;2023-05-07T07:09:52;11.65;;;10.55;;
11797;SDS011;5956;51.428;6.682;2023-05-07T07:12:20;10.15;;;9.23;;
11797;SDS011;5956;51.428;6.682;2023-05-07T07:14:47;9.93;;;8.93;;
11797;SDS011;5956;51.428;6.682;2023-05-07T07:17:14;9.02;;;8.23;;
11797;SDS011;5956;51.428;6.682;2023-05-07T07:19:40;9.07;;;8.18;;
11797;SDS011;5956;51.428;6.682;2023-05-07T07:22:07;9.30;;;7.85;;
11797;SDS011;5956;51.428;6.682;2023-05-07T07:24:35;7.15;;;6.53;;
11797;SDS011;5956;51.428;6.682;2023-05-07T07:27:01;7.47;;;6.75;;
11797;SDS011;5956;51.428;6.682;2023-05-07T07:29:28;8.18;;;7.47;;
11797;SDS011;5956;51.428;6.682;2023-05-07T07:31:55;6.80;;;6.22;;
11797;SDS011;5956;51.428;6.682;2023-05-07T07:34:21;6.95;;;6.43;;
11797;SDS011;5956;51.428;6.682;2023-05-07T07:36:48;6.70;;;6.20;;
11797;SDS011;5956;51.428;6.682;2023-05-07T07:39:14;6.85;;;6.32;;
11797;SDS011;5956;51.428;6.682;2023-05-07T07:41:43;6.15;;;5.57;;
11797;SDS011;5956;51.428;6.682;2023-05-07T07:44:09;5.35;;;4.90;;
11797;SDS011;5956;51.428;6.682;2023-05-07T07:46:38;6.38;;;5.13;;
11797;SDS011;5956;51.428;6.682;2023-05-07T07:49:04;5.15;;;4.78;;
11797;SDS011;5956;51.428;6.682;2023-05-07T07:51:31;4.95;;;4.55;;
11797;SDS011;5956;51.428;6.682;2023-05-07T07:53:57;5.07;;;4.25;;
11797;SDS011;5956;51.428;6.682;2023-05-07T07:56:24;4.72;;;4.32;;
11797;SDS011;5956;51.428;6.682;2023-05-07T07:58:52;6.68;;;4.25;;
11797;SDS011;5956;51.428;6.682;2023-05-07T08:01:18;4.45;;;3.35;;
11797;SDS011;5956;51.428;6.682;2023-05-07T08:03:45;4.18;;;3.88;;
11797;SDS011;5956;51.428;6.682;2023-05-07T08:06:11;4.65;;;4.20;;
11797;SDS011;5956;51.428;6.682;2023-05-07T08:08:38;4.25;;;3.90;;
11797;SDS011;5956;51.428;6.682;2023-05-07T08:11:04;4.53;;;4.05;;
11797;SDS011;5956;51.428;6.682;2023-05-07T08:13:31;4.80;;;4.40;;
11797;SDS011;5956;51.428;6.682;2023-05-07T08:15:59;4.78;;;4.47;;
11797;SDS011;5956;51.428;6.682;2023-05-07T08:18:25;4.95;;;4.50;;
11797;SDS011;5956;51.428;6.682;2023-05-07T08:20:54;5.20;;;4.60;;
11797;SDS011;5956;51.428;6.682;2023-05-07T08:23:20;4.15;;;3.80;;
11797;SDS011;5956;51.428;6.682;2023-05-07T08:25:47;4.57;;;4.13;;
11797;SDS011;5956;51.428;6.682;2023-05-07T08:28:13;4.63;;;4.22;;
11797;SDS011;5956;51.428;6.682;2023-05-07T08:30:40;4.43;;;4.07;;
11797;SDS011;5956;51.428;6.682;2023-05-07T08:33:09;4.15;;;3.83;;
11797;SDS011;5956;51.428;6.682;2023-05-07T08:35:36;4.32;;;3.95;;
11797;SDS011;5956;51.428;6.682;2023-05-07T08:38:02;4.40;;;4.00;;
11797;SDS011;5956;51.428;6.682;2023-05-07T08:40:29;4.45;;;4.05;;
11797;SDS011;5956;51.428;6.682;2023-05-07T08:42:56;3.67;;;3.38;;
11797;SDS011;5956;51.428;6.682;2023-05-07T08:45:23;6.20;;;4.88;;
11797;SDS011;5956;51.428;6.682;2023-05-07T08:47:50;5.18;;;4.63;;
11797;SDS011;5956;51.428;6.682;2023-05-07T08:50:19;4.70;;;4.30;;
11797;SDS011;5956;51.428;6.682;2023-05-07T08:52:46;6.75;;;4.40;;
11797;SDS011;5956;51.428;6.682;2023-05-07T08:55:13;5.63;;;4.60;;
11797;SDS011;5956;51.428;6.682;2023-05-07T08:57:40;4.20;;;3.90;;
11797;SDS011;5956;51.428;6.682;2023-05-07T09:00:07;5.63;;;3.92;;
11797;SDS011;5956;51.428;6.682;2023-05-07T09:02:34;4.45;;;4.07;;
11797;SDS011;5956;51.428;6.682;2023-05-07T09:05:01;4.43;;;4.00;;
11797;SDS011;5956;51.428;6.682;2023-05-07T09:07:29;4.75;;;3.88;;
11797;SDS011;5956;51.428;6.682;2023-05-07T09:09:56;4.93;;;4.38;;
11797;SDS011;5956;51.428;6.682;2023-05-07T09:12:23;4.20;;;3.80;;
11797;SDS011;5956;51.428;6.682;2023-05-07T09:14:49;4.43;;;3.95;;
11797;SDS011;5956;51.428;6.682;2023-05-07T09:17:16;4.78;;;4.30;;
11797;SDS011;5956;51.428;6.682;2023-05-07T09:19:43;5.20;;;3.75;;
11797;SDS011;5956;51.428;6.682;2023-05-07T09:22:10;3.88;;;3.47;;
11797;SDS011;5956;51.428;6.682;2023-05-07T09:24:38;4.75;;;3.92;;
11797;SDS011;5956;51.428;6.682;2023-05-07T09:27:05;5.30;;;4.80;;
11797;SDS011;5956;51.428;6.682;2023-05-07T09:29:31;4.13;;;3.65;;
11797;SDS011;5956;51.428;6.682;2023-05-07T09:32:00;3.50;;;3.20;;
11797;SDS011;5956;51.428;6.682;2023-05-07T09:34:27;3.83;;;3.00;;
11797;SDS011;5956;51.428;6.682;2023-05-07T09:36:54;3.95;;;3.65;;
11797;SDS011;5956;51.428;6.682;2023-05-07T09:39:21;3.58;;;3.28;;
11797;SDS011;5956;51.428;6.682;2023-05-07T09:41:49;3.97;;;3.58;;
11797;SDS011;5956;51.428;6.682;2023-05-07T09:44:17;4.40;;;4.00;;
11797;SDS011;5956;51.428;6.682;2023-05-07T09:46:44;5.03;;;3.75;;
11797;SDS011;5956;51.428;6.682;2023-05-07T09:49:12;3.55;;;3.35;;
11797;SDS011;5956;51.428;6.682;2023-05-07T09:51:43;3.85;;;3.25;;
11797;SDS011;5956;51.428;6.682;2023-05-07T09:54:11;3.40;;;3.20;;
11797;SDS011;5956;51.428;6.682;2023-05-07T09:56:38;3.75;;;3.28;;
11797;SDS011;5956;51.428;6.682;2023-05-07T09:59:08;3.42;;;2.88;;
11797;SDS011;5956;51.428;6.682;2023-05-07T10:01:36;4.22;;;3.08;;
11797;SDS011;5956;51.428;6.682;2023-05-07T10:04:03;4.40;;;3.13;;
11797;SDS011;5956;51.428;6.682;2023-05-07T10:06:30;3.25;;;2.92;;
11797;SDS011;5956;51.428;6.682;2023-05-07T10:08:56;3.08;;;2.78;;
11797;SDS011;5956;51.428;6.682;2023-05-07T10:11:23;2.97;;;2.50;;
11797;SDS011;5956;51.428;6.682;2023-05-07T10:13:50;3.63;;;2.65;;
11797;SDS011;5956;51.428;6.682;2023-05-07T10:16:19;2.95;;;2.67;;
11797;SDS011;5956;51.428;6.682;2023-05-07T10:18:46;2.72;;;2.47;;
11797;SDS011;5956;51.428;6.682;2023-05-07T10:21:16;3.10;;;2.80;;
11797;SDS011;5956;51.428;6.682;2023-05-07T10:23:43;3.20;;;2.90;;
11797;SDS011;5956;51.428;6.682;2023-05-07T10:26:11;3.58;;;2.70;;
11797;SDS011;5956;51.428;6.682;2023-05-07T10:28:38;3.55;;;2.33;;
11797;SDS011;5956;51.428;6.682;2023-05-07T10:31:13;3.17;;;2.53;;
11797;SDS011;5956;51.428;6.682;2023-05-07T10:33:42;2.70;;;2.50;;
11797;SDS011;5956;51.428;6.682;2023-05-07T10:36:10;2.42;;;2.22;;
11797;SDS011;5956;51.428;6.682;2023-05-07T10:38:36;2.88;;;2.67;;
11797;SDS011;5956;51.428;6.682;2023-05-07T10:41:03;2.95;;;2.60;;
11797;SDS011;5956;51.428;6.682;2023-05-07T10:43:40;3.05;;;2.75;;
11797;SDS011;5956;51.428;6.682;2023-05-07T10:46:14;2.65;;;2.45;;
11797;SDS011;5956;51.428;6.682;2023-05-07T10:51:28;3.88;;;2.05;;
11797;SDS011;5956;51.428;6.682;2023-05-07T10:56:37;3.47;;;2.33;;
11797;SDS011;5956;51.428;6.682;2023-05-07T11:01:49;2.25;;;2.10;;
11797;SDS011;5956;51.428;6.682;2023-05-07T11:04:17;2.10;;;2.00;;
11797;SDS011;5956;51.428;6.682;2023-05-07T11:12:13;3.30;;;2.10;;
11797;SDS011;5956;51.428;6.682;2023-05-07T11:14:43;3.67;;;2.00;;
11797;SDS011;5956;51.428;6.682;2023-05-07T11:17:10;3.13;;;2.13;;
11797;SDS011;5956;51.428;6.682;2023-05-07T11:19:49;2.50;;;1.73;;
11797;SDS011;5956;51.428;6.682;2023-05-07T11:24:58;2.00;;;1.90;;
11797;SDS011;5956;51.428;6.682;2023-05-07T11:27:26;2.42;;;1.92;;
11797;SDS011;5956;51.428;6.682;2023-05-07T11:29:53;1.80;;;1.70;;
11797;SDS011;5956;51.428;6.682;2023-05-07T11:32:22;2.60;;;2.38;;
11797;SDS011;5956;51.428;6.682;2023-05-07T11:34:51;2.00;;;1.90;;
11797;SDS011;5956;51.428;6.682;2023-05-07T11:37:18;1.75;;;1.65;;
11797;SDS011;5956;51.428;6.682;2023-05-07T11:39:45;2.20;;;2.00;;
11797;SDS011;5956;51.428;6.682;2023-05-07T11:42:24;2.30;;;1.98;;
11797;SDS011;5956;51.428;6.682;2023-05-07T11:44:52;2.28;;;2.10;;
11797;SDS011;5956;51.428;6.682;2023-05-07T11:47:19;2.08;;;1.90;;
11797;SDS011;5956;51.428;6.682;2023-05-07T11:49:46;2.97;;;2.15;;
11797;SDS011;5956;51.428;6.682;2023-05-07T11:52:13;2.15;;;2.00;;
11797;SDS011;5956;51.428;6.682;2023-05-07T11:54:39;3.13;;;2.00;;
11797;SDS011;5956;51.428;6.682;2023-05-07T11:57:05;2.85;;;2.17;;
11797;SDS011;5956;51.428;6.682;2023-05-07T11:59:37;2.10;;;2.00;;
11797;SDS011;5956;51.428;6.682;2023-05-07T12:02:06;2.38;;;2.13;;
11797;SDS011;5956;51.428;6.682;2023-05-07T12:04:33;1.90;;;1.80;;
11797;SDS011;5956;51.428;6.682;2023-05-07T12:06:59;4.45;;;2.20;;
11797;SDS011;5956;51.428;6.682;2023-05-07T12:09:26;2.78;;;2.13;;
11797;SDS011;5956;51.428;6.682;2023-05-07T12:11:53;2.00;;;1.90;;
11797;SDS011;5956;51.428;6.682;2023-05-07T12:14:21;2.00;;;1.90;;
11797;SDS011;5956;51.428;6.682;2023-05-07T12:16:47;3.58;;;2.20;;
11797;SDS011;5956;51.428;6.682;2023-05-07T12:19:15;2.10;;;2.00;;
11797;SDS011;5956;51.428;6.682;2023-05-07T12:21:42;2.55;;;2.10;;
11797;SDS011;5956;51.428;6.682;2023-05-07T12:24:08;2.38;;;2.10;;
11797;SDS011;5956;51.428;6.682;2023-05-07T12:26:37;2.10;;;2.00;;
11797;SDS011;5956;51.428;6.682;2023-05-07T12:29:03;2.15;;;2.05;;
11797;SDS011;5956;51.428;6.682;2023-05-07T12:31:30;2.05;;;1.95;;
11797;SDS011;5956;51.428;6.682;2023-05-07T12:33:57;2.17;;;2.05;;
11797;SDS011;5956;51.428;6.682;2023-05-07T12:36:25;2.25;;;2.05;;
11797;SDS011;5956;51.428;6.682;2023-05-07T12:38:51;2.10;;;2.00;;
11797;SDS011;5956;51.428;6.682;2023-05-07T12:41:20;2.05;;;1.90;;
11797;SDS011;5956;51.428;6.682;2023-05-07T12:43:51;1.90;;;1.80;;
11797;SDS011;5956;51.428;6.682;2023-05-07T12:46:22;2.50;;;2.05;;
11797;SDS011;5956;51.428;6.682;2023-05-07T12:48:48;2.28;;;2.05;;
11797;SDS011;5956;51.428;6.682;2023-05-07T12:51:15;2.58;;;2.00;;
11797;SDS011;5956;51.428;6.682;2023-05-07T12:53:43;2.63;;;2.42;;
11797;SDS011;5956;51.428;6.682;2023-05-07T12:56:09;2.40;;;2.20;;
11797;SDS011;5956;51.428;6.682;2023-05-07T12:58:36;2.10;;;2.00;;
11797;SDS011;5956;51.428;6.682;2023-05-07T13:01:04;3.80;;;1.98;;
11797;SDS011;5956;51.428;6.682;2023-05-07T13:03:31;2.80;;;2.00;;
11797;SDS011;5956;51.428;6.682;2023-05-07T13:05:58;3.42;;;2.10;;
11797;SDS011;5956;51.428;6.682;2023-05-07T13:08:26;2.42;;;2.22;;
11797;SDS011;5956;51.428;6.682;2023-05-07T13:10:54;3.05;;;2.20;;
11797;SDS011;5956;51.428;6.682;2023-05-07T13:13:20;2.70;;;2.50;;
11797;SDS011;5956;51.428;6.682;2023-05-07T13:15:47;2.20;;;2.10;;
11797;SDS011;5956;51.428;6.682;2023-05-07T13:18:14;3.15;;;2.35;;
11797;SDS011;5956;51.428;6.682;2023-05-07T13:20:40;2.67;;;2.22;;
11797;SDS011;5956;51.428;6.682;2023-05-07T13:23:07;2.53;;;2.33;;
11797;SDS011;5956;51.428;6.682;2023-05-07T13:25:33;2.33;;;2.13;;
11797;SDS011;5956;51.428;6.682;2023-05-07T13:28:01;2.63;;;2.42;;
11797;SDS011;5956;51.428;6.682;2023-05-07T13:30:29;2.45;;;2.00;;
11797;SDS011;5956;51.428;6.682;2023-05-07T13:32:56;3.90;;;2.30;;
11797;SDS011;5956;51.428;6.682;2023-05-07T13:35:22;4.30;;;2.40;;
11797;SDS011;5956;51.428;6.682;2023-05-07T13:37:49;3.10;;;2.90;;
11797;SDS011;5956;51.428;6.682;2023-05-07T13:40:17;5.47;;;4.28;;
11797;SDS011;5956;51.428;6.682;2023-05-07T13:42:43;4.63;;;4.20;;
11797;SDS011;5956;51.428;6.682;2023-05-07T13:45:11;6.22;;;3.90;;
11797;SDS011;5956;51.428;6.682;2023-05-07T13:47:39;4.95;;;4.15;;
11797;SDS011;5956;51.428;6.682;2023-05-07T13:50:06;4.53;;;3.85;;
11797;SDS011;5956;51.428;6.682;2023-05-07T13:52:32;4.65;;;3.33;;
11797;SDS011;5956;51.428;6.682;2023-05-07T13:54:59;4.35;;;3.08;;
11797;SDS011;5956;51.428;6.682;2023-05-07T13:57:25;3.17;;;2.95;;
11797;SDS011;5956;51.428;6.682;2023-05-07T13:59:52;3.58;;;3.33;;
11797;SDS011;5956;51.428;6.682;2023-05-07T14:02:20;3.53;;;3.22;;
11797;SDS011;5956;51.428;6.682;2023-05-07T14:04:46;4.35;;;3.15;;
11797;SDS011;5956;51.428;6.682;2023-05-07T14:07:13;3.15;;;2.90;;
11797;SDS011;5956;51.428;6.682;2023-05-07T14:09:40;3.15;;;2.97;;
11797;SDS011;5956;51.428;6.682;2023-05-07T14:12:06;3.35;;;3.15;;
11797;SDS011;5956;51.428;6.682;2023-05-07T14:14:33;5.47;;;3.20;;
11797;SDS011;5956;51.428;6.682;2023-05-07T14:16:59;3.55;;;3.25;;
11797;SDS011;5956;51.428;6.682;2023-05-07T14:19:27;4.78;;;4.25;;
11797;SDS011;5956;51.428;6.682;2023-05-07T14:21:54;3.60;;;3.30;;
11797;SDS011;5956;51.428;6.682;2023-05-07T14:24:20;4.07;;;3.67;;
11797;SDS011;5956;51.428;6.682;2023-05-07T14:26:47;3.95;;;3.55;;
11797;SDS011;5956;51.428;6.682;2023-05-07T14:29:13;4.00;;;3.70;;
11797;SDS011;5956;51.428;6.682;2023-05-07T14:31:43;13.95;;;7.30;;
11797;SDS011;5956;51.428;6.682;2023-05-07T14:34:10;14.10;;;8.23;;
11797;SDS011;5956;51.428;6.682;2023-05-07T14:36:38;10.63;;;7.47;;
11797;SDS011;5956;51.428;6.682;2023-05-07T14:39:04;11.40;;;8.30;;
11797;SDS011;5956;51.428;6.682;2023-05-07T14:41:31;13.90;;;6.88;;
11797;SDS011;5956;51.428;6.682;2023-05-07T14:43:58;8.00;;;7.10;;
11797;SDS011;5956;51.428;6.682;2023-05-07T14:46:24;8.77;;;7.35;;
11797;SDS011;5956;51.428;6.682;2023-05-07T14:48:51;7.28;;;6.72;;
11797;SDS011;5956;51.428;6.682;2023-05-07T14:51:17;7.25;;;6.57;;
11797;SDS011;5956;51.428;6.682;2023-05-07T14:53:45;8.15;;;7.00;;
11797;SDS011;5956;51.428;6.682;2023-05-07T14:56:12;7.47;;;6.75;;
11797;SDS011;5956;51.428;6.682;2023-05-07T14:58:38;6.50;;;5.90;;
11797;SDS011;5956;51.428;6.682;2023-05-07T15:01:05;7.20;;;6.32;;
11797;SDS011;5956;51.428;6.682;2023-05-07T15:03:31;7.38;;;6.68;;
11797;SDS011;5956;51.428;6.682;2023-05-07T15:05:58;6.68;;;6.10;;
11797;SDS011;5956;51.428;6.682;2023-05-07T15:08:24;7.07;;;6.43;;